Time;durP1;ratioP1;P1;durP2;ratioP2;P2;SDS_P1;SDS_P2;PMS_P1;PMS_P2;Temp;Humidity;BMP_temperature;BMP_pressure;BME280_temperature;BME280_humidity;BME280_pressure;Samples;Min_cycle;Max_cycle;Signal;HPM_P1;HPM_P2
2023/08/05 00:00:07;;;;;;;0.10;0.10;;;15.20;57.30;;;;;;5086930;28;20641;-57
2023/08/05 00:02:38;;;;;;;0.10;0.10;;;15.20;57.30;;;;;;5091476;28;20697;-57
2023/08/05 00:05:10;;;;;;;0.10;0.10;;;15.20;57.30;;;;;;5091522;28;20304;-52
2023/08/05 00:07:42;;;;;;;0.10;0.10;;;15.30;57.30;;;;;;5071796;28;20195;-53
2023/08/05 00:10:13;;;;;;;0.10;0.10;;;15.30;57.30;;;;;;5071519;28;20197;-58
2023/08/05 00:12:44;;;;;;;0.20;0.20;;;15.30;57.20;;;;;;5071849;28;20670;-56
2023/08/05 00:15:14;;;;;;;0.10;0.10;;;15.30;57.20;;;;;;5071574;28;20219;-63
2023/08/05 00:17:45;;;;;;;0.10;0.10;;;15.40;57.20;;;;;;5071588;28;20195;-54
2023/08/05 00:20:16;;;;;;;0.10;0.10;;;15.40;57.20;;;;;;5074437;28;20658;-55
2023/08/05 00:22:48;;;;;;;0.10;0.10;;;15.40;57.20;;;;;;5076123;28;20703;-53
2023/08/05 00:25:19;;;;;;;0.10;0.10;;;15.40;57.20;;;;;;5075540;28;20211;-56
2023/08/05 00:27:50;;;;;;;0.10;0.10;;;15.40;57.20;;;;;;5078231;28;20570;-53
2023/08/05 00:30:20;;;;;;;0.10;0.10;;;15.40;57.20;;;;;;5075586;28;20650;-58
2023/08/05 00:32:51;;;;;;;0.10;0.10;;;15.40;57.10;;;;;;5075771;28;20538;-61
2023/08/05 00:35:22;;;;;;;0.08;0.08;;;15.50;57.10;;;;;;5075606;28;20219;-52
2023/08/05 00:37:55;;;;;;;0.00;0.00;;;15.50;57.10;;;;;;5075612;28;20195;-50
2023/08/05 00:40:26;;;;;;;0.10;0.10;;;15.50;57.10;;;;;;5075264;28;20235;-48
2023/08/05 00:42:56;;;;;;;0.10;0.10;;;15.50;57.10;;;;;;5075813;28;20198;-52
2023/08/05 00:45:27;;;;;;;0.10;0.10;;;15.60;57.10;;;;;;5075200;28;20575;-59
2023/08/05 00:47:58;;;;;;;0.10;0.10;;;15.60;57.10;;;;;;5075474;28;20331;-58
2023/08/05 00:50:32;;;;;;;0.10;0.10;;;15.60;57.00;;;;;;5075181;28;20206;-59
2023/08/05 00:53:05;;;;;;;0.10;0.10;;;15.70;57.10;;;;;;5079094;28;20202;-56
2023/08/05 00:55:35;;;;;;;0.03;0.03;;;15.70;57.00;;;;;;5095232;28;20218;-57
2023/08/05 00:58:07;;;;;;;0.10;0.10;;;15.70;57.10;;;;;;5095050;28;20190;-51
2023/08/05 01:00:37;;;;;;;0.00;0.00;;;15.70;57.00;;;;;;5095210;28;20198;-52
2023/08/05 01:03:08;;;;;;;0.10;0.10;;;15.70;57.00;;;;;;5094849;28;20198;-51
2023/08/05 01:05:40;;;;;;;0.10;0.10;;;15.70;56.90;;;;;;5095079;28;20214;-53
2023/08/05 01:08:13;;;;;;;0.10;0.10;;;15.70;56.90;;;;;;5095244;28;20194;-54
2023/08/05 01:10:44;;;;;;;0.10;0.10;;;15.70;56.90;;;;;;5095107;28;20681;-61
2023/08/05 01:13:14;;;;;;;0.10;0.10;;;15.70;56.80;;;;;;5094931;28;20554;-52
2023/08/05 01:15:45;;;;;;;0.10;0.10;;;15.80;56.90;;;;;;5095025;28;20214;-56
2023/08/05 01:18:18;;;;;;;0.10;0.10;;;15.80;56.90;;;;;;5095017;28;20248;-51
2023/08/05 01:20:53;;;;;;;0.10;0.10;;;15.80;56.80;;;;;;5094880;28;20198;-54
2023/08/05 01:23:45;;;;;;;0.08;0.08;;;15.80;56.80;;;;;;5087702;28;20210;-58
2023/08/05 01:26:18;;;;;;;0.05;0.05;;;15.80;56.80;;;;;;5074656;28;20223;-53
2023/08/05 01:28:48;;;;;;;0.10;0.10;;;15.90;56.70;;;;;;5074578;28;20199;-60
2023/08/05 01:31:20;;;;;;;0.08;0.08;;;15.90;57.30;;;;;;5073933;28;20579;-59
2023/08/05 01:33:51;;;;;;;0.10;0.10;;;15.90;56.70;;;;;;5074383;28;20252;-59
2023/08/05 01:36:25;;;;;;;0.08;0.08;;;15.90;56.70;;;;;;5074704;28;20705;-51
2023/08/05 01:38:56;;;;;;;0.10;0.10;;;15.90;56.70;;;;;;5074268;28;20200;-56
2023/08/05 01:41:28;;;;;;;0.10;0.10;;;15.90;56.70;;;;;;5074163;28;20222;-53
2023/08/05 01:43:59;;;;;;;0.10;0.10;;;15.90;56.70;;;;;;5073851;28;20608;-49
2023/08/05 01:46:30;;;;;;;0.00;0.00;;;16.00;56.70;;;;;;5073925;28;20214;-61
2023/08/05 01:49:00;;;;;;;0.00;0.00;;;15.90;56.60;;;;;;5073902;28;20202;-57
2023/08/05 01:51:31;;;;;;;0.10;0.10;;;15.90;56.60;;;;;;5074240;28;20214;-52
2023/08/05 01:54:01;;;;;;;0.10;0.10;;;16.00;56.60;;;;;;5074343;28;20210;-61
2023/08/05 01:56:34;;;;;;;0.10;0.10;;;15.90;56.60;;;;;;5073903;28;20225;-60
2023/08/05 01:59:05;;;;;;;0.10;0.10;;;16.00;56.60;;;;;;5073671;28;20203;-54
2023/08/05 02:01:48;;;;;;;0.20;0.20;;;16.00;56.60;;;;;;5073793;28;20226;-57
2023/08/05 02:04:19;;;;;;;0.10;0.10;;;16.00;56.50;;;;;;5080296;28;20182;-54
2023/08/05 02:06:49;;;;;;;0.05;0.05;;;16.00;56.50;;;;;;5093727;28;20226;-52
2023/08/05 02:09:20;;;;;;;0.10;0.10;;;16.00;56.50;;;;;;5093921;28;20598;-58
2023/08/05 02:11:52;;;;;;;0.10;0.10;;;16.00;56.50;;;;;;5094116;28;20195;-51
2023/08/05 02:14:23;;;;;;;0.10;0.10;;;16.00;56.50;;;;;;5094016;28;20676;-54
2023/08/05 02:16:53;;;;;;;0.00;0.00;;;16.00;56.40;;;;;;5093937;28;20218;-61
2023/08/05 02:19:24;;;;;;;0.05;0.05;;;16.00;56.40;;;;;;5093945;28;20198;-54
2023/08/05 02:21:55;;;;;;;0.10;0.10;;;16.00;56.40;;;;;;5094010;28;20594;-49
2023/08/05 02:24:25;;;;;;;0.00;0.00;;;16.00;56.40;;;;;;5077536;28;20210;-59
2023/08/05 02:26:58;;;;;;;0.10;0.10;;;16.10;56.50;;;;;;5075633;28;20211;-48
2023/08/05 02:29:28;;;;;;;0.08;0.08;;;16.10;56.10;;;;;;5073176;28;20191;-59
2023/08/05 02:31:59;;;;;;;0.10;0.10;;;16.10;55.70;;;;;;5073447;28;20205;-60
2023/08/05 02:34:30;;;;;;;0.10;0.10;;;16.00;55.40;;;;;;5073355;28;20221;-60
2023/08/05 02:37:01;;;;;;;0.10;0.10;;;15.90;55.40;;;;;;5073287;28;20222;-60
2023/08/05 02:39:31;;;;;;;0.10;0.10;;;15.80;55.60;;;;;;5073136;28;20203;-60
2023/08/05 02:42:04;;;;;;;0.10;0.10;;;15.70;55.90;;;;;;5074419;28;20223;-59
2023/08/05 02:44:34;;;;;;;0.10;0.10;;;15.70;55.90;;;;;;5072955;28;20190;-59
2023/08/05 02:47:05;;;;;;;0.10;0.10;;;15.60;55.80;;;;;;5072913;28;20214;-59
2023/08/05 02:49:36;;;;;;;0.10;0.10;;;15.60;55.80;;;;;;5080032;28;20198;-58
2023/08/05 02:52:07;;;;;;;0.10;0.10;;;15.50;55.80;;;;;;5093058;28;20202;-59
2023/08/05 02:54:38;;;;;;;0.10;0.10;;;15.50;55.80;;;;;;5073897;28;20194;-59
2023/08/05 02:57:10;;;;;;;0.10;0.10;;;15.40;55.70;;;;;;5088801;28;20210;-59
2023/08/05 02:59:41;;;;;;;0.10;0.10;;;15.40;55.70;;;;;;5091860;28;20190;-59
2023/08/05 03:02:12;;;;;;;0.10;0.10;;;15.40;55.70;;;;;;5091129;28;20811;-59
2023/08/05 03:04:42;;;;;;;0.10;0.10;;;15.30;55.70;;;;;;5091519;28;20194;-59
2023/08/05 03:07:13;;;;;;;0.10;0.10;;;15.30;55.70;;;;;;5092809;28;20650;-59
2023/08/05 03:09:43;;;;;;;0.10;0.10;;;15.20;55.70;;;;;;5092404;28;20191;-59
2023/08/05 03:12:16;;;;;;;0.10;0.10;;;15.20;55.80;;;;;;5091981;28;20198;-59
2023/08/05 03:14:47;;;;;;;0.10;0.10;;;15.20;55.70;;;;;;5092213;28;20198;-59
2023/08/05 03:17:17;;;;;;;0.10;0.10;;;15.10;55.60;;;;;;5091344;28;20198;-59
2023/08/05 03:19:48;;;;;;;0.10;0.10;;;15.10;55.60;;;;;;5091754;28;20190;-59
2023/08/05 03:22:18;;;;;;;0.10;0.10;;;15.10;55.60;;;;;;5092595;28;20229;-59
2023/08/05 03:24:49;;;;;;;0.10;0.10;;;15.10;55.50;;;;;;5072484;28;20260;-59
2023/08/05 03:27:22;;;;;;;0.10;0.10;;;15.00;55.50;;;;;;5087482;28;20676;-59
2023/08/05 03:29:55;;;;;;;0.10;0.10;;;15.00;55.60;;;;;;5091265;28;20646;-59
2023/08/05 03:32:26;;;;;;;0.10;0.10;;;14.90;55.80;;;;;;5108648;28;20195;-59
2023/08/05 03:34:57;;;;;;;0.10;0.10;;;14.90;55.80;;;;;;5112367;28;20194;-59
2023/08/05 03:37:29;;;;;;;0.10;0.10;;;14.90;55.80;;;;;;5111953;28;20574;-59
2023/08/05 03:39:59;;;;;;;0.10;0.10;;;14.90;55.80;;;;;;5111689;28;20620;-58
2023/08/05 03:42:32;;;;;;;0.10;0.10;;;14.80;55.80;;;;;;5111259;28;20221;-59
2023/08/05 03:45:04;;;;;;;0.10;0.10;;;14.80;55.80;;;;;;5091519;28;20201;-59
2023/08/05 03:47:35;;;;;;;0.10;0.10;;;14.80;55.80;;;;;;5091792;28;20226;-59
2023/08/05 03:50:08;;;;;;;0.10;0.10;;;14.70;55.80;;;;;;5090946;28;20193;-58
2023/08/05 03:52:38;;;;;;;0.17;0.17;;;14.70;55.80;;;;;;5090388;28;20190;-58
2023/08/05 03:55:09;;;;;;;0.10;0.10;;;14.60;55.80;;;;;;5071160;28;20301;-59
2023/08/05 03:57:42;;;;;;;0.10;0.10;;;14.60;55.80;;;;;;5088476;28;20186;-58
2023/08/05 04:00:13;;;;;;;0.10;0.10;;;14.50;55.80;;;;;;5091134;28;20335;-58
2023/08/05 04:02:44;;;;;;;0.10;0.10;;;14.50;55.80;;;;;;5091024;28;20304;-59
2023/08/05 04:05:14;;;;;;;0.10;0.10;;;14.50;55.90;;;;;;5091424;28;20218;-58
2023/08/05 04:07:46;;;;;;;0.10;0.10;;;14.40;55.90;;;;;;5108903;28;20185;-58
2023/08/05 04:10:19;;;;;;;0.10;0.10;;;14.40;56.00;;;;;;5111964;28;20235;-58
2023/08/05 04:12:52;;;;;;;0.10;0.10;;;14.30;56.00;;;;;;5110849;28;20275;-59
2023/08/05 04:15:23;;;;;;;0.10;0.10;;;14.30;56.10;;;;;;5111477;28;20217;-60
2023/08/05 04:17:57;;;;;;;0.10;0.10;;;14.20;56.10;;;;;;5106034;28;20194;-59
2023/08/05 04:20:29;;;;;;;0.10;0.10;;;14.20;56.20;;;;;;5077402;28;20232;-59
2023/08/05 04:22:59;;;;;;;0.10;0.10;;;14.20;56.30;;;;;;5087115;28;20313;-58
2023/08/05 04:25:31;;;;;;;0.10;0.10;;;14.20;56.40;;;;;;5077349;28;20476;-59
2023/08/05 04:28:03;;;;;;;0.10;0.10;;;14.20;56.50;;;;;;5090821;28;20198;-59
2023/08/05 04:30:34;;;;;;;0.10;0.10;;;14.10;56.50;;;;;;5086019;28;20189;-59
2023/08/05 04:33:04;;;;;;;0.10;0.10;;;14.10;56.50;;;;;;5091629;28;20194;-58
2023/08/05 04:35:35;;;;;;;0.10;0.10;;;14.10;56.60;;;;;;5084375;28;20217;-58
2023/08/05 04:38:06;;;;;;;0.10;0.10;;;14.10;56.60;;;;;;5077040;28;20671;-59
2023/08/05 04:40:36;;;;;;;0.10;0.10;;;14.10;56.50;;;;;;5076393;28;20186;-59
2023/08/05 04:43:09;;;;;;;0.10;0.10;;;14.10;56.50;;;;;;5084580;28;20225;-59
2023/08/05 04:45:40;;;;;;;0.10;0.10;;;14.00;56.50;;;;;;5077875;28;20597;-58
2023/08/05 04:48:10;;;;;;;0.13;0.13;;;14.00;56.50;;;;;;5090818;28;20198;-59
2023/08/05 04:50:41;;;;;;;0.10;0.10;;;14.00;56.50;;;;;;5091328;28;20194;-58
2023/08/05 04:53:11;;;;;;;0.10;0.10;;;14.00;56.50;;;;;;5085226;28;20203;-59
2023/08/05 04:55:43;;;;;;;0.10;0.10;;;14.00;56.50;;;;;;5077471;28;20217;-58
2023/08/05 04:58:15;;;;;;;0.10;0.10;;;14.00;56.50;;;;;;5090528;28;20198;-58
2023/08/05 05:00:46;;;;;;;0.10;0.10;;;14.00;56.50;;;;;;5090806;28;20194;-58
2023/08/05 05:03:17;;;;;;;0.10;0.10;;;14.00;56.40;;;;;;5090389;28;20309;-59
2023/08/05 05:05:47;;;;;;;0.10;0.10;;;14.00;56.40;;;;;;5091941;28;20213;-59
2023/08/05 05:08:18;;;;;;;0.15;0.15;;;13.90;56.40;;;;;;5094328;28;20195;-59
2023/08/05 05:10:49;;;;;;;0.10;0.10;;;13.90;56.40;;;;;;5080726;28;20195;-56
2023/08/05 05:13:21;;;;;;;0.10;0.10;;;13.90;56.40;;;;;;5073209;28;20286;-58
2023/08/05 05:15:52;;;;;;;0.10;0.10;;;13.90;56.40;;;;;;5080611;28;20692;-58
2023/08/05 05:18:23;;;;;;;0.10;0.10;;;13.90;56.50;;;;;;5094753;28;20209;-55
2023/08/05 05:20:54;;;;;;;0.10;0.10;;;13.90;56.60;;;;;;5094705;28;20201;-56
2023/08/05 05:23:25;;;;;;;0.10;0.10;;;13.90;56.60;;;;;;5086828;28;20440;-57
2023/08/05 05:25:55;;;;;;;0.10;0.10;;;14.00;56.70;;;;;;5081174;28;20776;-52
2023/08/05 05:28:28;;;;;;;0.10;0.10;;;14.10;57.40;;;;;;5094755;28;20197;-51
2023/08/05 05:30:59;;;;;;;0.10;0.10;;;14.10;57.70;;;;;;5094908;28;20595;-55
2023/08/05 05:33:29;;;;;;;0.10;0.10;;;14.20;57.60;;;;;;5094884;28;20238;-57
2023/08/05 05:36:00;;;;;;;0.10;0.10;;;14.30;57.50;;;;;;5094524;28;20229;-53
2023/08/05 05:38:30;;;;;;;0.20;0.20;;;14.40;57.90;;;;;;5094252;28;20212;-56
2023/08/05 05:41:02;;;;;;;0.10;0.10;;;14.40;57.20;;;;;;5094334;28;20267;-60
2023/08/05 05:43:35;;;;;;;0.10;0.10;;;14.50;57.10;;;;;;5094401;28;20287;-55
2023/08/05 05:46:05;;;;;;;0.10;0.10;;;14.50;57.00;;;;;;5094143;28;20778;-61
2023/08/05 05:48:36;;;;;;;0.10;0.10;;;14.60;56.90;;;;;;5094233;28;20201;-56
2023/08/05 05:51:07;;;;;;;0.10;0.10;;;14.60;56.90;;;;;;5094215;28;20205;-53
2023/08/05 05:53:37;;;;;;;0.10;0.10;;;14.70;56.80;;;;;;5085348;28;20206;-50
2023/08/05 05:56:08;;;;;;;0.10;0.10;;;14.70;56.80;;;;;;5073899;28;20211;-56
2023/08/05 05:58:40;;;;;;;0.10;0.10;;;14.80;56.70;;;;;;5073983;28;20199;-58
2023/08/05 06:01:11;;;;;;;0.10;0.10;;;14.80;56.60;;;;;;5073680;28;20195;-59
2023/08/05 06:03:42;;;;;;;0.10;0.10;;;14.80;56.60;;;;;;5073689;28;20239;-61
2023/08/05 06:06:12;;;;;;;0.10;0.10;;;14.90;56.60;;;;;;5085728;28;20293;-57
2023/08/05 06:08:43;;;;;;;0.10;0.10;;;14.90;56.60;;;;;;5093856;28;20194;-54
2023/08/05 06:11:14;;;;;;;0.10;0.10;;;14.90;56.50;;;;;;5090053;28;20195;-59
2023/08/05 06:13:46;;;;;;;0.10;0.10;;;14.90;56.50;;;;;;5073732;28;20203;-54
2023/08/05 06:16:17;;;;;;;0.10;0.10;;;14.90;56.40;;;;;;5072541;28;20219;-56
2023/08/05 06:18:47;;;;;;;0.10;0.10;;;15.00;56.40;;;;;;5073237;28;20194;-60
2023/08/05 06:21:18;;;;;;;0.10;0.10;;;15.00;56.40;;;;;;5073960;28;20637;-61
2023/08/05 06:23:48;;;;;;;0.00;0.00;;;15.00;56.40;;;;;;5084108;28;20240;-55
2023/08/05 06:26:19;;;;;;;0.10;0.10;;;15.00;56.30;;;;;;5089912;28;20657;-62
2023/08/05 06:28:52;;;;;;;0.10;0.10;;;15.10;56.30;;;;;;5093275;28;20677;-59
2023/08/05 06:31:22;;;;;;;0.10;0.10;;;15.10;56.30;;;;;;5093437;28;20198;-53
2023/08/05 06:33:53;;;;;;;0.10;0.10;;;15.10;56.20;;;;;;5093611;28;20202;-63
2023/08/05 06:36:23;;;;;;;0.10;0.10;;;15.10;56.20;;;;;;5093517;28;20215;-59
2023/08/05 06:38:54;;;;;;;0.10;0.10;;;15.10;56.20;;;;;;5092924;28;20208;-51
2023/08/05 06:41:25;;;;;;;0.10;0.10;;;15.10;56.10;;;;;;5093260;28;20201;-52
2023/08/05 06:43:57;;;;;;;0.10;0.10;;;15.20;56.20;;;;;;5093274;28;20265;-54
2023/08/05 06:46:28;;;;;;;0.10;0.10;;;15.10;56.10;;;;;;5093331;28;20222;-54
2023/08/05 06:48:59;;;;;;;0.10;0.10;;;15.20;56.20;;;;;;5093634;28;20206;-59
2023/08/05 06:51:31;;;;;;;0.10;0.10;;;15.10;56.10;;;;;;5093212;28;20233;-54
2023/08/05 06:54:02;;;;;;;0.10;0.10;;;15.20;56.10;;;;;;5093392;28;20688;-54
2023/08/05 06:56:33;;;;;;;0.08;0.08;;;15.20;56.10;;;;;;5093075;28;20222;-54
2023/08/05 06:59:05;;;;;;;0.10;0.10;;;15.20;56.10;;;;;;5093176;28;20198;-57
2023/08/05 07:01:36;;;;;;;0.10;0.10;;;15.20;56.00;;;;;;5093127;28;20198;-55
2023/08/05 07:04:06;;;;;;;0.10;0.10;;;15.20;56.00;;;;;;5092978;28;20221;-59
2023/08/05 07:06:38;;;;;;;0.10;0.10;;;15.20;56.00;;;;;;5092549;28;20218;-55
2023/08/05 07:09:08;;;;;;;0.10;0.10;;;15.20;56.00;;;;;;5092972;28;20277;-58
2023/08/05 07:11:39;;;;;;;0.10;0.10;;;15.20;56.00;;;;;;5092548;28;20203;-63
2023/08/05 07:14:12;;;;;;;0.10;0.10;;;15.20;56.00;;;;;;5093001;28;20198;-56
2023/08/05 07:16:42;;;;;;;0.10;0.10;;;15.20;55.90;;;;;;5092859;28;20222;-57
2023/08/05 07:19:13;;;;;;;0.13;0.13;;;15.20;55.90;;;;;;5092857;28;20202;-56
2023/08/05 07:21:43;;;;;;;0.10;0.10;;;15.20;55.90;;;;;;5093353;28;20201;-53
2023/08/05 07:24:14;;;;;;;0.10;0.10;;;15.20;55.80;;;;;;5078147;28;20234;-57
2023/08/05 07:26:45;;;;;;;0.10;0.10;;;15.30;55.90;;;;;;5072130;28;20219;-57
2023/08/05 07:29:17;;;;;;;0.05;0.05;;;15.20;55.80;;;;;;5072034;28;20537;-60
2023/08/05 07:31:48;;;;;;;0.10;0.10;;;15.30;55.90;;;;;;5072069;28;20194;-61
2023/08/05 07:34:18;;;;;;;0.10;0.10;;;15.20;55.80;;;;;;5071918;28;20203;-54
2023/08/05 07:36:49;;;;;;;0.10;0.10;;;15.30;55.90;;;;;;5074063;28;20690;-57
2023/08/05 07:39:20;;;;;;;0.00;0.00;;;15.30;55.90;;;;;;5092332;28;20194;-53
2023/08/05 07:41:50;;;;;;;0.10;0.10;;;15.30;55.80;;;;;;5092146;28;20201;-60
2023/08/05 07:44:23;;;;;;;0.10;0.10;;;15.30;55.90;;;;;;5091922;28;20233;-56
2023/08/05 07:46:53;;;;;;;0.10;0.10;;;15.30;55.90;;;;;;5092188;28;20310;-52
2023/08/05 07:49:24;;;;;;;0.10;0.10;;;15.30;55.90;;;;;;5092269;28;20694;-61
2023/08/05 07:51:55;;;;;;;0.10;0.10;;;15.30;55.90;;;;;;5092242;28;20237;-52
2023/08/05 07:54:26;;;;;;;0.10;0.10;;;15.30;55.80;;;;;;5076295;28;20234;-57
2023/08/05 07:56:58;;;;;;;0.10;0.10;;;15.30;55.80;;;;;;5071678;28;20265;-57
2023/08/05 07:59:31;;;;;;;0.10;0.10;;;15.30;55.80;;;;;;5071887;28;20308;-51
2023/08/05 08:02:01;;;;;;;0.10;0.10;;;15.30;55.80;;;;;;5090917;28;20239;-57
2023/08/05 08:04:34;;;;;;;0.10;0.10;;;15.30;55.80;;;;;;5091503;28;20233;-61
2023/08/05 08:07:05;;;;;;;0.13;0.13;;;15.30;55.80;;;;;;5091663;28;20220;-57
2023/08/05 08:09:36;;;;;;;0.10;0.10;;;15.30;55.70;;;;;;5083881;28;20222;-53
2023/08/05 08:12:07;;;;;;;0.00;0.00;;;15.30;55.70;;;;;;5071650;28;20617;-54
2023/08/05 08:14:39;;;;;;;0.10;0.10;;;15.30;55.70;;;;;;5071850;28;20195;-48
2023/08/05 08:17:10;;;;;;;0.10;0.10;;;15.30;55.70;;;;;;5084619;28;20214;-60
2023/08/05 08:19:40;;;;;;;0.13;0.13;;;15.30;55.70;;;;;;5085276;28;20210;-54
2023/08/05 08:22:11;;;;;;;0.10;0.10;;;15.30;55.70;;;;;;5072298;28;20562;-55
2023/08/05 08:24:41;;;;;;;0.10;0.10;;;15.30;55.70;;;;;;5089238;28;20233;-53
2023/08/05 08:27:12;;;;;;;0.10;0.10;;;15.30;56.10;;;;;;5091264;28;20218;-54
2023/08/05 08:29:45;;;;;;;0.05;0.05;;;15.30;55.70;;;;;;5091331;28;20654;-58
2023/08/05 08:32:15;;;;;;;0.08;0.08;;;15.30;55.70;;;;;;5091399;28;20190;-59
2023/08/05 08:34:46;;;;;;;0.10;0.10;;;15.30;55.70;;;;;;5091754;28;20220;-51
2023/08/05 08:37:16;;;;;;;0.10;0.10;;;15.30;55.60;;;;;;5091695;28;20642;-60
2023/08/05 08:39:47;;;;;;;0.10;0.10;;;15.30;55.60;;;;;;5091932;28;20198;-57
2023/08/05 08:42:21;;;;;;;0.10;0.10;;;15.30;55.70;;;;;;5095484;28;20190;-50
2023/08/05 08:44:54;;;;;;;0.10;0.10;;;15.30;55.70;;;;;;5095560;28;20324;-59
2023/08/05 08:47:26;;;;;;;0.10;0.10;;;15.30;55.60;;;;;;5095591;28;20567;-51
2023/08/05 08:49:58;;;;;;;0.10;0.10;;;15.30;55.60;;;;;;5095445;28;20642;-61
2023/08/05 08:52:29;;;;;;;0.10;0.10;;;15.30;55.60;;;;;;5095301;28;20222;-55
2023/08/05 08:55:00;;;;;;;0.08;0.08;;;15.30;55.70;;;;;;5095077;28;20194;-58
2023/08/05 08:57:31;;;;;;;0.05;0.05;;;15.30;55.60;;;;;;5095331;28;20533;-57
2023/08/05 09:00:03;;;;;;;0.10;0.10;;;15.30;55.60;;;;;;5095263;28;20673;-60
2023/08/05 09:02:34;;;;;;;0.10;0.10;;;15.30;55.60;;;;;;5095461;28;20198;-52
2023/08/05 09:05:06;;;;;;;0.10;0.10;;;15.30;55.60;;;;;;5094919;28;20233;-62
2023/08/05 09:07:37;;;;;;;0.10;0.10;;;15.30;55.60;;;;;;5095166;28;20198;-51
2023/08/05 09:10:09;;;;;;;0.10;0.10;;;15.30;55.60;;;;;;5094997;28;20195;-56
2023/08/05 09:12:40;;;;;;;0.10;0.10;;;15.30;55.60;;;;;;5094862;28;20578;-57
2023/08/05 09:15:17;;;;;;;0.10;0.10;;;15.30;55.60;;;;;;5094930;28;21238;-54
2023/08/05 09:17:48;;;;;;;0.10;0.10;;;15.30;55.60;;;;;;5095107;28;20202;-59
2023/08/05 09:20:22;;;;;;;0.10;0.10;;;15.30;55.60;;;;;;5094929;28;20198;-52
2023/08/05 09:23:01;;;;;;;0.03;0.03;;;15.30;55.60;;;;;;5092685;28;20673;-57
2023/08/05 09:25:32;;;;;;;0.10;0.10;;;15.30;55.60;;;;;;5074089;28;20230;-57
2023/08/05 09:28:04;;;;;;;0.10;0.10;;;15.30;55.60;;;;;;5074695;28;20202;-61
2023/08/05 09:30:37;;;;;;;0.10;0.10;;;15.30;55.60;;;;;;5074601;28;20209;-57
2023/08/05 09:33:08;;;;;;;0.10;0.10;;;15.20;55.60;;;;;;5074657;28;20198;-52
2023/08/05 09:35:38;;;;;;;0.10;0.10;;;15.30;55.60;;;;;;5074370;28;20230;-56
2023/08/05 09:38:14;;;;;;;0.10;0.10;;;15.30;55.60;;;;;;5074242;28;20205;-54
2023/08/05 09:40:50;;;;;;;0.10;0.10;;;15.30;55.60;;;;;;5076560;28;20251;-51
2023/08/05 09:43:24;;;;;;;0.10;0.10;;;15.30;55.60;;;;;;5094678;28;20247;-56
2023/08/05 09:45:57;;;;;;;0.10;0.10;;;15.30;55.60;;;;;;5094549;28;20225;-59
2023/08/05 09:48:29;;;;;;;0.10;0.10;;;15.30;55.60;;;;;;5094417;28;20194;-56
2023/08/05 09:51:02;;;;;;;0.10;0.10;;;15.30;55.60;;;;;;5093966;28;20205;-55
2023/08/05 09:53:35;;;;;;;0.10;0.10;;;15.30;55.60;;;;;;5092185;28;20638;-50
2023/08/05 09:56:07;;;;;;;0.10;0.10;;;15.30;55.60;;;;;;5094439;28;20218;-57
2023/08/05 09:58:39;;;;;;;0.10;0.10;;;15.30;55.60;;;;;;5094512;28;20251;-59
2023/08/05 10:01:12;;;;;;;0.05;0.05;;;15.20;55.60;;;;;;5094647;28;20242;-53
2023/08/05 10:03:43;;;;;;;0.10;0.10;;;15.20;55.50;;;;;;5091453;28;20642;-60
2023/08/05 10:06:14;;;;;;;0.10;0.10;;;15.20;55.50;;;;;;5073706;28;20575;-59
2023/08/05 10:08:46;;;;;;;0.10;0.10;;;15.20;55.50;;;;;;5073999;28;20555;-55
2023/08/05 10:11:19;;;;;;;0.10;0.10;;;15.20;55.60;;;;;;5073545;28;20262;-57
2023/08/05 10:13:53;;;;;;;0.00;0.00;;;15.20;55.60;;;;;;5093298;28;20293;-62
2023/08/05 10:16:26;;;;;;;0.10;0.10;;;15.20;55.60;;;;;;5093622;28;20648;-63
2023/08/05 10:18:57;;;;;;;0.10;0.10;;;15.20;55.60;;;;;;5094001;28;20194;-56
2023/08/05 10:21:41;;;;;;;0.10;0.10;;;15.20;55.60;;;;;;5079438;28;20209;-56
2023/08/05 10:24:11;;;;;;;0.10;0.10;;;15.20;55.60;;;;;;5073393;28;20218;-52
2023/08/05 10:26:45;;;;;;;0.10;0.10;;;15.30;55.60;;;;;;5075336;28;20211;-62
2023/08/05 10:29:32;;;;;;;0.10;0.10;;;15.30;55.60;;;;;;5073386;28;20658;-56
2023/08/05 10:32:29;;;;;;;0.10;0.10;;;15.30;55.60;;;;;;5073279;28;20588;-53
2023/08/05 10:35:27;;;;;;;0.10;0.10;;;15.30;55.60;;;;;;5072884;28;20198;-52
2023/08/05 10:38:12;;;;;;;0.10;0.10;;;15.30;55.60;;;;;;5073103;28;20282;-56
2023/08/05 10:40:47;;;;;;;0.10;0.10;;;15.20;55.50;;;;;;5072566;28;20203;-54
2023/08/05 10:43:35;;;;;;;0.10;0.10;;;15.20;55.50;;;;;;5072786;28;20202;-59
2023/08/05 10:46:14;;;;;;;0.10;0.10;;;15.20;55.60;;;;;;5072555;28;20227;-55
2023/08/05 10:48:47;;;;;;;0.10;0.10;;;15.20;56.10;;;;;;5072605;28;20237;-55
2023/08/05 10:51:20;;;;;;;0.10;0.10;;;15.20;55.70;;;;;;5072536;28;20199;-55
2023/08/05 10:54:02;;;;;;;0.10;0.10;;;15.20;55.70;;;;;;5075067;28;20202;-61
2023/08/05 10:56:33;;;;;;;0.10;0.10;;;15.30;55.80;;;;;;5089729;28;20981;-48
2023/08/05 10:59:05;;;;;;;0.10;0.10;;;15.30;55.80;;;;;;5085628;28;20199;-48
2023/08/05 11:01:55;;;;;;;0.10;0.10;;;15.30;55.80;;;;;;5086343;28;20197;-48
2023/08/05 11:04:34;;;;;;;0.10;0.10;;;15.30;55.80;;;;;;5091359;28;20681;-54
2023/08/05 11:07:07;;;;;;;0.10;0.10;;;15.30;55.70;;;;;;5081337;28;20218;-49
2023/08/05 11:09:37;;;;;;;0.10;0.10;;;15.30;55.70;;;;;;5072016;28;20602;-55
2023/08/05 11:12:09;;;;;;;0.10;0.10;;;15.30;55.80;;;;;;5076193;28;20248;-57
2023/08/05 11:14:41;;;;;;;0.10;0.10;;;15.30;55.70;;;;;;5071607;28;20672;-54
2023/08/05 11:17:11;;;;;;;0.10;0.10;;;15.30;55.80;;;;;;5089568;28;20557;-60
2023/08/05 11:19:56;;;;;;;0.10;0.10;;;15.30;55.70;;;;;;5092571;28;20240;-52
2023/08/05 11:22:32;;;;;;;0.10;0.10;;;15.20;55.60;;;;;;5092524;28;20201;-58
2023/08/05 11:25:04;;;;;;;0.10;0.10;;;15.30;55.60;;;;;;5071789;28;20309;-54
2023/08/05 11:27:38;;;;;;;0.10;0.10;;;15.30;55.60;;;;;;5071547;28;20661;-55
2023/08/05 11:30:16;;;;;;;0.10;0.10;;;15.30;55.70;;;;;;5071343;28;20244;-56
2023/08/05 11:33:04;;;;;;;0.10;0.10;;;15.30;55.70;;;;;;5072606;28;20198;-51
2023/08/05 11:35:44;;;;;;;0.10;0.10;;;15.30;55.70;;;;;;5074791;28;20214;-56
2023/08/05 11:38:18;;;;;;;0.15;0.15;;;15.30;55.60;;;;;;5091825;28;20601;-55
2023/08/05 11:40:50;;;;;;;0.10;0.10;;;15.30;55.70;;;;;;5091714;28;20224;-57
2023/08/05 11:43:22;;;;;;;0.10;0.10;;;15.30;55.70;;;;;;5091649;28;20194;-60
2023/08/05 11:45:54;;;;;;;0.10;0.10;;;15.30;55.70;;;;;;5090906;28;20232;-53
2023/08/05 11:48:25;;;;;;;0.10;0.10;;;15.30;55.60;;;;;;5081011;28;20187;-50
2023/08/05 11:51:01;;;;;;;0.10;0.10;;;15.30;55.70;;;;;;5074021;28;20209;-49
2023/08/05 11:53:32;;;;;;;0.10;0.10;;;15.30;55.70;;;;;;5082552;28;20279;-56
2023/08/05 11:56:03;;;;;;;0.10;0.10;;;15.30;55.60;;;;;;5076712;28;20210;-60
2023/08/05 11:58:37;;;;;;;0.10;0.10;;;15.30;55.60;;;;;;5091375;28;20194;-49
2023/08/05 12:01:07;;;;;;;0.10;0.10;;;15.30;55.60;;;;;;5091520;28;20198;-55
2023/08/05 12:03:38;;;;;;;0.10;0.10;;;15.20;55.60;;;;;;5091817;28;20213;-60
2023/08/05 12:06:12;;;;;;;0.10;0.10;;;15.30;55.60;;;;;;5097461;28;20583;-52
2023/08/05 12:08:44;;;;;;;0.10;0.10;;;15.20;55.60;;;;;;5096808;28;20201;-57
2023/08/05 12:11:14;;;;;;;0.10;0.10;;;15.30;55.60;;;;;;5088191;28;20190;-49
2023/08/05 12:13:47;;;;;;;0.10;0.10;;;15.20;55.60;;;;;;5091866;28;20193;-51
2023/08/05 12:16:18;;;;;;;0.10;0.10;;;15.30;55.70;;;;;;5091865;28;20214;-54
2023/08/05 12:18:50;;;;;;;0.10;0.10;;;15.30;55.60;;;;;;5091697;28;20190;-58
2023/08/05 12:21:23;;;;;;;0.10;0.10;;;15.30;55.60;;;;;;5091807;28;20660;-55
2023/08/05 12:23:53;;;;;;;0.10;0.10;;;15.20;55.60;;;;;;5091477;28;20249;-52
2023/08/05 12:26:29;;;;;;;0.10;0.10;;;15.20;55.60;;;;;;5091208;28;20230;-58
2023/08/05 12:29:00;;;;;;;0.10;0.10;;;15.30;55.60;;;;;;5091812;28;20206;-55
2023/08/05 12:31:32;;;;;;;0.00;0.00;;;15.30;55.60;;;;;;5091871;28;20658;-50
2023/08/05 12:34:03;;;;;;;0.10;0.10;;;15.20;55.60;;;;;;5088004;28;20194;-59
2023/08/05 12:36:35;;;;;;;0.10;0.10;;;15.20;55.60;;;;;;5091326;28;20719;-52
2023/08/05 12:39:07;;;;;;;0.10;0.10;;;15.20;55.60;;;;;;5091789;28;20194;-57
2023/08/05 12:41:37;;;;;;;0.10;0.10;;;15.20;55.60;;;;;;5091478;28;20248;-61
2023/08/05 12:44:08;;;;;;;0.10;0.10;;;15.20;55.60;;;;;;5091661;28;20198;-61
2023/08/05 12:46:38;;;;;;;0.10;0.10;;;15.20;55.60;;;;;;5091482;28;20229;-54
2023/08/05 12:49:09;;;;;;;0.10;0.10;;;15.20;55.60;;;;;;5091461;28;20225;-54
2023/08/05 12:51:42;;;;;;;0.00;0.00;;;15.20;55.60;;;;;;5091799;28;20198;-54
2023/08/05 12:54:12;;;;;;;0.10;0.10;;;15.20;55.70;;;;;;5091332;28;20202;-52
2023/08/05 12:56:43;;;;;;;0.10;0.10;;;15.20;55.60;;;;;;5091086;28;20226;-60
2023/08/05 12:59:13;;;;;;;0.10;0.10;;;15.20;55.60;;;;;;5091665;28;20198;-57
2023/08/05 13:01:45;;;;;;;0.10;0.10;;;15.20;55.60;;;;;;5091144;28;20190;-54
2023/08/05 13:04:15;;;;;;;0.10;0.10;;;15.20;55.60;;;;;;5091773;28;20191;-57
2023/08/05 13:06:48;;;;;;;0.10;0.10;;;15.20;55.70;;;;;;5091475;28;20230;-57
2023/08/05 13:09:19;;;;;;;0.10;0.10;;;15.20;55.60;;;;;;5091426;28;20202;-54
2023/08/05 13:11:49;;;;;;;0.10;0.10;;;15.20;55.60;;;;;;5091363;28;20233;-55